METAR stanice u blizini

 

LYBE - Beograd / Surčin, Srbija
Ažurirano: 03/07/2020 15:00
Mostly Cloudy
Mostly Cloudy
 Pravac vetra ZSZ
Vetar: ZSZ 30 km/h
Temperatura: 29°C
Heat Index: 31°C
Tačka rose: 20°C
Vlažnost: 58%
Pritisak: 1011 hPa
Oblaci: Mostly Cloudy
Vidljivost: 10 km
Cloud details: Mostly Cloudy 1219 m
2020/07/03 13:00 LYBE 031300Z 30016KT 270V340 9999 BKN040 29/20 Q1011 NOSIG
LYBT - Beograd / Batajnica, Srbija
Ažurirano: 03/07/2020 15:00
Partly Cloudy
Partly Cloudy
 Pravac vetra ZSZ
Vetar: ZSZ 19 km/h
Temperatura: 28°C
Heat Index: 29°C
Tačka rose: 20°C
Vlažnost: 62%
Pritisak: 1011 hPa
Oblaci: Partly Cloudy
Vidljivost: 10 km
Cloud details: Partly Cloudy 1219 m
2020/07/03 13:00 LYBT 031300Z 29010KT 270V330 9999 SCT040 28/20 Q1011 NOSIG
LYVR - Vršac, Srbija
Ažurirano: 03/07/2020 15:00
Partly Cloudy
Partly Cloudy
 Pravac vetra I
Vetar: I 13 km/h
Temperatura: 26°C
Tačka rose: 21°C
Vlažnost: 74%
Pritisak: 1011 hPa
Oblaci: Partly Cloudy
Vidljivost: 10 km
Cloud details: Partly Cloudy 1006 m
2020/07/03 13:00 LYVR 031300Z 09007KT 060V120 9999 SCT033 26/21 Q1011
 
LYKV - Lađevci, Srbija
Ažurirano: 03/07/2020 15:00
Partly Cloudy
Partly Cloudy
 Pravac vetra S
Vetar: S 13 km/h
Temperatura: 31°C
Heat Index: 33°C
Tačka rose: 20°C
Vlažnost: 52%
Pritisak: 1010 hPa
Oblaci: Partly Cloudy
Vidljivost: 10 km
Cloud details: Partly Cloudy 1219 m
2020/07/03 13:00 LYKV 031300Z 01007KT 270V040 9999 SCT040 31/20 Q1010 NOSIG
LYNI - Niš, Srbija
Ažurirano: 03/07/2020 15:00
Few Clouds
Few Clouds
 Pravac vetra varies
Vetar: varies 6 km/h
Temperatura: 31°C
Heat Index: 32°C
Tačka rose: 18°C
Vlažnost: 46%
Pritisak: 1009 hPa
Oblaci: Few Clouds
Vidljivost: 10 km
Cloud details: Few Clouds 914 m
2020/07/03 13:00 LYNI 031300Z VRB03KT 9999 FEW030 31/18 Q1009 NOSIG
BKPR - Priština, Srbija
Ažurirano: 03/07/2020 15:00
Heavy thunderstorm, Padavine, Pretežno oblačno
Heavy thunderstorm, Padavine, Pretežno oblačno
 Pravac vetra SZ
Vetar: SZ 33 km/h
Temperatura: 24°C
Tačka rose: 17°C
Vlažnost: 65%
Pritisak: 1012 hPa
Pregled: Heavy thunderstorm, Padavine
Oblaci: Mostly Cloudy
Vidljivost: 1 km
Cloud details: Mostly Cloudy 762 m
2020/07/03 13:00 BKPR 031300Z 31018KT 1000 +TSRA BKN025CB 24/17 Q1012 NOSIG
 
LHPP - Pecs / Pogany, Hungary
Ažurirano: 03/07/2020 14:45
Mostly Cloudy
Mostly Cloudy
 Pravac vetra SZ
Vetar: SZ 13 km/h
Temperatura: 23°C
Tačka rose: 17°C
Vlažnost: 69%
Pritisak: 1014 hPa
Oblaci: Mostly Cloudy
Vidljivost: 10 km
Cloud details: Few Clouds 701 m
Mostly Cloudy 2530 m
2020/07/03 12:45 LHPP 031245Z 32007KT 9999 FEW023 BKN083 23/17 Q1014
LHUD - Szeged, Hungary
Ažurirano: 04/07/2019 01:45
NOT Current
Vedro
Vedro
 Pravac vetra S
Vetar: S 7 km/h
Temperatura: 18°C
Tačka rose: 13°C
Vlažnost: 73%
Pritisak: 1019 hPa
Pregled: Vedro
Vidljivost: greater than 10 km
2019/07/03 23:45 LHUD 032345Z 35004KT CAVOK 18/13 Q1019
LRTR - Timisoara, Romania
Ažurirano: 03/07/2020 15:00
Thunderstorm, Few clouds
Thunderstorm, Few clouds
 Pravac vetra J
Vetar: J 11 km/h
Temperatura: 24°C
Tačka rose: 20°C
Vlažnost: 78%
Pritisak: 1010 hPa
Pregled: Thunderstorm
Oblaci: Few Clouds
Vidljivost: 10 km
Cloud details: Few Clouds 1494 m
2020/07/03 13:00 LRTR 031300Z 19006KT 160V220 9999 TS FEW049CB 24/20 Q1010
 
LRCV - Craiova, Romania
Ažurirano: 03/07/2020 15:00
Vedro
Vedro
 Pravac vetra Z
Vetar: Z 9 km/h
Temperatura: 30°C
Heat Index: 31°C
Tačka rose: 19°C
Vlažnost: 52%
Pritisak: 1010 hPa
Pregled: Vedro
Vidljivost: greater than 10 km
2020/07/03 13:00 LRCV 031300Z 28005KT 230V330 CAVOK 30/19 Q1010
LBSF - Sofia, Bulgaria
Ažurirano: 03/07/2020 15:00
Few Clouds
Few Clouds
 Pravac vetra SZ
Vetar: SZ 13 km/h
Temperatura: 31°C
Tačka rose: 15°C
Vlažnost: 38%
Pritisak: 1011 hPa
Oblaci: Few Clouds
Vidljivost: 10 km
Cloud details: Few Clouds 2134 m
2020/07/03 13:00 LBSF 031300Z 32007KT 270V040 9999 FEW070 31/15 Q1011 NOSIG
LWSK - Skoplje, Makedonija
Ažurirano: 03/07/2020 15:00
Partly Cloudy
Partly Cloudy
 Pravac vetra S
Vetar: S 7 km/h
Temperatura: 35°C
Tačka rose: 17°C
Vlažnost: 34%
Pritisak: 1008 hPa
Oblaci: Partly Cloudy
Vidljivost: 10 km
Cloud details: Few Clouds 1524 m
Partly Cloudy 2134 m
2020/07/03 13:00 LWSK 031300Z 01004KT 280V070 9999 FEW050 SCT070 35/17 Q1008 NOSIG
 
LYPG - Podgorica, Crna Gora
Ažurirano: 03/07/2020 15:00
Few Clouds
Few Clouds
 Pravac vetra J
Vetar: J 11 km/h
Temperatura: 37°C
Tačka rose: 14°C
Vlažnost: 25%
Pritisak: 1007 hPa
Oblaci: Few Clouds
Vidljivost: 10 km
Cloud details: Few Clouds 1036 m
2020/07/03 13:00 LYPG 031300Z 18006KT 130V230 9999 FEW034 37/14 Q1007 NOSIG
LQSA - Sarajevo, Bosna i Hercegovina
Ažurirano: 03/07/2020 15:00
Partly Cloudy
Partly Cloudy
 Pravac vetra varies
Vetar: varies 6 km/h
Temperatura: 21°C
Tačka rose: 19°C
Vlažnost: 88%
Pritisak: 1015 hPa
Oblaci: Partly Cloudy
Vidljivost: 10 km
Cloud details: Few Clouds 1219 m
Partly Cloudy 1524 m
2020/07/03 13:00 LQSA 031300Z VRB03KT 9999 FEW040 SCT050 21/19 Q1015
LDOS - Osijek, Hrvatksa
Ažurirano: 03/07/2020 15:00
Few Clouds
Few Clouds
 Pravac vetra SZ
Vetar: SZ 26 km/h
Temperatura: 24°C
Tačka rose: 18°C
Vlažnost: 69%
Pritisak: 1013 hPa
Oblaci: Few Clouds
Vidljivost: 10 km
Cloud details: Few Clouds 1128 m
2020/07/03 13:00 LDOS 031300Z 32014KT 9999 FEW037 24/18 Q1013